createdAt,value
2022-09-20T00:01:29.498Z,6.89
2022-09-20T00:02:29.378Z,6.88
2022-09-20T00:03:29.361Z,6.85
2022-09-20T00:04:29.360Z,6.83
2022-09-20T00:06:29.380Z,6.82
2022-09-20T00:07:29.360Z,6.79
2022-09-20T00:08:29.370Z,6.78
2022-09-20T00:09:29.350Z,6.77
2022-09-20T00:11:29.425Z,6.72
2022-09-20T00:12:29.375Z,6.70
2022-09-20T00:13:29.412Z,6.69
2022-09-20T00:14:29.414Z,6.66
2022-09-20T00:16:29.410Z,6.62
2022-09-20T00:17:29.358Z,6.59
2022-09-20T00:18:29.386Z,6.55
2022-09-20T00:19:29.406Z,6.56
2022-09-20T00:21:29.388Z,6.51
2022-09-20T00:22:29.379Z,6.48
2022-09-20T00:23:29.445Z,6.46
2022-09-20T00:24:29.388Z,6.46
2022-09-20T00:26:29.371Z,6.45
2022-09-20T00:27:29.409Z,6.44
2022-09-20T00:28:29.415Z,6.46
2022-09-20T00:29:29.390Z,6.43
2022-09-20T00:31:29.487Z,6.41
2022-09-20T00:32:29.446Z,6.38
2022-09-20T00:33:29.414Z,6.36
2022-09-20T00:34:29.399Z,6.35
2022-09-20T00:36:29.444Z,6.32
2022-09-20T00:37:29.420Z,6.28
2022-09-20T00:38:29.380Z,6.27
2022-09-20T00:39:29.378Z,6.26
2022-09-20T00:41:29.404Z,6.25
2022-09-20T00:42:29.419Z,6.25
2022-09-20T00:43:29.385Z,6.22
2022-09-20T00:44:29.406Z,6.22
2022-09-20T00:46:29.418Z,6.18
2022-09-20T00:47:29.425Z,6.17
2022-09-20T00:48:29.417Z,6.15
2022-09-20T00:49:29.398Z,6.15
2022-09-20T00:51:29.435Z,6.15
2022-09-20T00:52:29.434Z,6.13
2022-09-20T00:53:29.443Z,6.13
2022-09-20T00:54:29.412Z,6.13
2022-09-20T00:56:29.440Z,6.10
2022-09-20T00:57:29.424Z,6.08
2022-09-20T00:58:29.396Z,6.07
2022-09-20T00:59:29.385Z,6.04
2022-09-20T01:01:29.458Z,6.02
2022-09-20T01:02:29.453Z,6.02
2022-09-20T01:03:29.436Z,6.01
2022-09-20T01:04:29.441Z,5.99
2022-09-20T01:06:29.466Z,5.97
2022-09-20T01:07:29.457Z,5.95
2022-09-20T01:08:29.405Z,5.93
2022-09-20T01:09:29.460Z,5.90
2022-09-20T01:11:29.436Z,5.86
2022-09-20T01:12:29.466Z,5.86
2022-09-20T01:13:29.438Z,5.84
2022-09-20T01:14:29.430Z,5.85
2022-09-20T01:16:29.510Z,5.92
2022-09-20T01:17:29.417Z,5.91
2022-09-20T01:18:29.448Z,5.92
2022-09-20T01:19:29.452Z,5.90
2022-09-20T01:21:29.460Z,5.91
2022-09-20T01:22:29.444Z,5.90
2022-09-20T01:23:29.459Z,5.87
2022-09-20T01:24:29.430Z,5.86
2022-09-20T01:26:29.449Z,5.82
2022-09-20T01:27:29.454Z,5.81
2022-09-20T01:28:29.449Z,5.79
2022-09-20T01:29:29.469Z,5.78
2022-09-20T01:31:29.568Z,5.74
2022-09-20T01:32:29.484Z,5.72
2022-09-20T01:33:29.460Z,5.69
2022-09-20T01:34:29.496Z,5.66
2022-09-20T01:36:29.457Z,5.63
2022-09-20T01:37:29.487Z,5.60
2022-09-20T01:38:29.482Z,5.61
2022-09-20T01:39:29.459Z,5.60
2022-09-20T01:41:29.489Z,5.59
2022-09-20T01:42:29.487Z,5.58
2022-09-20T01:43:29.485Z,5.58
2022-09-20T01:44:29.478Z,5.56
2022-09-20T01:46:29.500Z,5.55
2022-09-20T01:47:29.582Z,5.56
2022-09-20T01:48:29.463Z,5.56
2022-09-20T01:49:29.491Z,5.57
2022-09-20T01:51:29.470Z,5.55
2022-09-20T01:52:29.470Z,5.54
2022-09-20T01:53:29.494Z,5.53
2022-09-20T01:54:29.513Z,5.52
2022-09-20T01:56:29.488Z,5.52
2022-09-20T01:57:29.475Z,5.52
2022-09-20T01:58:29.489Z,5.52
2022-09-20T01:59:29.840Z,5.49
2022-09-20T02:01:29.634Z,5.47
2022-09-20T02:02:29.503Z,5.46
2022-09-20T02:03:29.550Z,5.44
2022-09-20T02:04:29.491Z,5.44
2022-09-20T02:06:29.494Z,5.41
2022-09-20T02:07:29.533Z,5.41
2022-09-20T02:08:29.516Z,5.40
2022-09-20T02:09:29.525Z,5.41
2022-09-20T02:11:29.511Z,5.39
2022-09-20T02:12:33.389Z,5.39
2022-09-20T02:13:29.521Z,5.37
2022-09-20T02:14:29.521Z,5.37
2022-09-20T02:16:29.658Z,5.33
2022-09-20T02:17:29.494Z,5.30
2022-09-20T02:18:29.549Z,5.28
2022-09-20T02:19:29.513Z,5.27
2022-09-20T02:21:29.492Z,5.25
2022-09-20T02:22:29.505Z,5.24
2022-09-20T02:23:29.496Z,5.23
2022-09-20T02:24:29.525Z,5.22
2022-09-20T02:26:29.507Z,5.22
2022-09-20T02:27:29.541Z,5.21
2022-09-20T02:28:29.533Z,5.19
2022-09-20T02:29:29.542Z,5.18
2022-09-20T02:31:29.591Z,5.16
2022-09-20T02:32:29.535Z,5.16
2022-09-20T02:33:29.502Z,5.14
2022-09-20T02:34:29.539Z,5.14
2022-09-20T02:36:29.505Z,5.13
2022-09-20T02:37:29.520Z,5.13
2022-09-20T02:38:29.623Z,5.13
2022-09-20T02:39:29.515Z,5.13
2022-09-20T02:41:29.509Z,5.13
2022-09-20T02:42:29.574Z,5.12
2022-09-20T02:43:29.548Z,5.10
2022-09-20T02:44:29.531Z,5.08
2022-09-20T02:46:29.568Z,5.07
2022-09-20T02:47:29.535Z,5.08
2022-09-20T02:48:29.520Z,5.07
2022-09-20T02:49:29.539Z,5.08
2022-09-20T02:51:29.578Z,5.07
2022-09-20T02:52:29.514Z,5.06
2022-09-20T02:53:29.537Z,5.04
2022-09-20T02:54:29.561Z,5.03
2022-09-20T02:57:18.667Z,5.02
2022-09-20T02:58:18.721Z,5.01
2022-09-20T02:59:18.690Z,5.01
2022-09-20T03:00:18.703Z,5.02
2022-09-20T03:01:18.721Z,5.00
2022-09-20T03:02:18.788Z,5.00
2022-09-20T03:03:18.693Z,4.99
2022-09-20T03:04:18.681Z,4.99
2022-09-20T03:05:18.707Z,4.99
2022-09-20T03:06:18.693Z,4.99
2022-09-20T03:07:18.689Z,5.00
2022-09-20T03:08:18.695Z,4.98
2022-09-20T03:09:18.676Z,4.98
2022-09-20T03:10:18.708Z,4.96
2022-09-20T03:11:18.691Z,4.96
2022-09-20T03:12:18.704Z,4.96
2022-09-20T03:13:18.699Z,4.96
2022-09-20T03:14:18.723Z,4.96
2022-09-20T03:15:18.728Z,4.97
2022-09-20T03:16:18.752Z,4.96
2022-09-20T03:17:18.727Z,4.94
2022-09-20T03:18:18.712Z,4.93
2022-09-20T03:19:18.717Z,4.91
2022-09-20T03:20:18.726Z,4.91
2022-09-20T03:21:18.714Z,4.91
2022-09-20T03:22:18.731Z,4.91
2022-09-20T03:23:18.723Z,4.92
2022-09-20T03:24:18.741Z,4.93
2022-09-20T03:25:18.733Z,4.96
2022-09-20T03:26:18.731Z,4.99
2022-09-20T03:27:18.720Z,5.02
2022-09-20T03:28:18.698Z,5.07
2022-09-20T03:29:18.741Z,5.09
2022-09-20T03:30:18.737Z,5.13
2022-09-20T03:31:18.990Z,5.19
2022-09-20T03:32:18.877Z,5.22
2022-09-20T03:33:18.871Z,5.26
2022-09-20T03:34:18.884Z,5.27
2022-09-20T03:35:18.926Z,5.27
2022-09-20T03:36:18.914Z,5.27
2022-09-20T03:37:18.925Z,5.25
2022-09-20T03:38:18.939Z,5.22
2022-09-20T03:39:18.947Z,5.20
2022-09-20T03:40:19.061Z,5.19
2022-09-20T03:41:19.006Z,5.19
2022-09-20T03:42:18.978Z,5.17
2022-09-20T03:43:18.988Z,5.17
2022-09-20T03:44:18.996Z,5.15
2022-09-20T03:45:19.016Z,5.15
2022-09-20T03:46:19.074Z,5.14
2022-09-20T03:47:19.044Z,5.15
2022-09-20T03:48:19.037Z,5.15
2022-09-20T03:49:19.069Z,5.13
2022-09-20T03:50:19.096Z,5.12
2022-09-20T03:51:19.076Z,5.12
2022-09-20T03:52:19.096Z,5.12
2022-09-20T03:53:19.144Z,5.11
2022-09-20T03:54:19.120Z,5.09
2022-09-20T03:55:19.149Z,5.07
2022-09-20T03:56:19.154Z,5.07
2022-09-20T03:57:19.165Z,5.06
2022-09-20T03:58:19.172Z,5.04
2022-09-20T03:59:19.182Z,5.03
2022-09-20T04:00:19.215Z,4.99
2022-09-20T04:01:19.376Z,4.98
2022-09-20T04:02:19.359Z,4.94
2022-09-20T04:03:19.316Z,4.92
2022-09-20T04:04:19.309Z,4.91
2022-09-20T04:05:19.321Z,4.91
2022-09-20T04:06:19.323Z,4.92
2022-09-20T04:07:19.327Z,4.92
2022-09-20T04:08:19.336Z,4.92
2022-09-20T04:09:19.411Z,4.91
2022-09-20T04:10:19.432Z,4.91
2022-09-20T04:11:19.391Z,4.92
2022-09-20T04:12:19.404Z,4.89
2022-09-20T04:13:19.395Z,4.88
2022-09-20T04:14:19.401Z,4.88
2022-09-20T04:15:19.410Z,4.88
2022-09-20T04:16:19.469Z,4.86
2022-09-20T04:17:19.398Z,4.83
2022-09-20T04:18:19.445Z,4.83
2022-09-20T04:19:19.432Z,4.81
2022-09-20T04:20:19.468Z,4.78
2022-09-20T04:21:19.453Z,4.79
2022-09-20T04:22:19.555Z,4.76
2022-09-20T04:23:19.558Z,4.76
2022-09-20T04:24:19.589Z,4.75
2022-09-20T04:25:19.569Z,4.75
2022-09-20T04:26:19.566Z,4.74
2022-09-20T04:27:19.570Z,4.76
2022-09-20T04:28:19.566Z,4.76
2022-09-20T04:29:19.567Z,4.75
2022-09-20T04:30:19.653Z,4.77
2022-09-20T04:31:20.936Z,4.77
2022-09-20T04:32:19.767Z,4.77
2022-09-20T04:33:19.654Z,4.76
2022-09-20T04:34:19.696Z,4.78
2022-09-20T04:35:19.702Z,4.77
2022-09-20T04:36:19.696Z,4.78
2022-09-20T04:37:19.710Z,4.77
2022-09-20T04:38:19.699Z,4.78
2022-09-20T04:39:19.714Z,4.77
2022-09-20T04:40:19.774Z,4.78
2022-09-20T04:41:19.737Z,4.78
2022-09-20T04:42:19.724Z,4.78
2022-09-20T04:43:19.728Z,4.78
2022-09-20T04:44:19.762Z,4.75
2022-09-20T04:45:19.749Z,4.75
2022-09-20T04:46:19.840Z,4.73
2022-09-20T04:47:19.769Z,4.72
2022-09-20T04:48:19.760Z,4.72
2022-09-20T04:49:19.864Z,4.72
2022-09-20T04:50:19.913Z,4.73
2022-09-20T04:51:19.997Z,4.71
2022-09-20T04:52:20.012Z,4.72
2022-09-20T04:53:20.002Z,4.71
2022-09-20T04:54:19.991Z,4.70
2022-09-20T04:55:20.036Z,4.71
2022-09-20T04:56:20.021Z,4.72
2022-09-20T04:57:20.020Z,4.73
2022-09-20T04:58:19.998Z,4.72
2022-09-20T04:59:20.000Z,4.72
2022-09-20T05:00:20.029Z,4.69
2022-09-20T05:01:20.018Z,4.68
2022-09-20T05:02:20.080Z,4.68
2022-09-20T05:03:19.996Z,4.68
2022-09-20T05:04:20.009Z,4.68
2022-09-20T05:05:20.026Z,4.67
2022-09-20T05:06:20.014Z,4.67
2022-09-20T05:07:19.997Z,4.68
2022-09-20T05:08:20.033Z,4.68
2022-09-20T05:09:20.016Z,4.68
2022-09-20T05:10:20.058Z,4.67
2022-09-20T05:11:20.071Z,4.67
2022-09-20T05:12:20.070Z,4.67
2022-09-20T05:13:20.083Z,4.67
2022-09-20T05:14:20.208Z,4.66
2022-09-20T05:15:20.211Z,4.66
2022-09-20T05:16:20.231Z,4.68
2022-09-20T05:17:20.170Z,4.69
2022-09-20T05:18:20.182Z,4.70
2022-09-20T05:19:20.191Z,4.71
2022-09-20T05:20:20.243Z,4.71
2022-09-20T05:21:20.225Z,4.70
2022-09-20T05:22:20.233Z,4.71
2022-09-20T05:23:20.258Z,4.71
2022-09-20T05:24:20.406Z,4.70
2022-09-20T05:25:20.390Z,4.69
2022-09-20T05:26:20.390Z,4.68
2022-09-20T05:27:20.399Z,4.66
2022-09-20T05:28:20.391Z,4.66
2022-09-20T05:29:20.412Z,4.65
2022-09-20T05:30:20.430Z,4.65
2022-09-20T05:31:20.488Z,4.65
2022-09-20T05:32:20.395Z,4.66
2022-09-20T05:33:20.406Z,4.66
2022-09-20T05:34:20.440Z,4.66
2022-09-20T05:35:20.430Z,4.66
2022-09-20T05:36:20.421Z,4.65
2022-09-20T05:37:20.428Z,4.65
2022-09-20T05:38:20.444Z,4.66
2022-09-20T05:39:20.411Z,4.66
2022-09-20T05:40:20.468Z,4.65
2022-09-20T05:41:20.437Z,4.64
2022-09-20T05:42:20.418Z,4.64
2022-09-20T05:43:20.411Z,4.65
2022-09-20T05:44:20.440Z,4.66
2022-09-20T05:45:20.485Z,4.65
2022-09-20T05:46:20.472Z,4.67
2022-09-20T05:47:20.490Z,4.68
2022-09-20T05:48:20.496Z,4.68
2022-09-20T05:49:20.498Z,4.70
2022-09-20T05:50:20.497Z,4.71
2022-09-20T05:51:20.520Z,4.72
2022-09-20T05:52:20.550Z,4.73
2022-09-20T05:53:20.566Z,4.75
2022-09-20T05:54:20.554Z,4.78
2022-09-20T05:55:20.580Z,4.80
2022-09-20T05:56:20.600Z,4.83
2022-09-20T05:57:20.603Z,4.82
2022-09-20T05:58:20.610Z,4.84
2022-09-20T05:59:20.604Z,4.84
2022-09-20T06:00:20.723Z,4.86
2022-09-20T06:01:20.742Z,4.88
2022-09-20T06:02:20.777Z,4.89
2022-09-20T06:03:20.722Z,4.92
2022-09-20T06:04:20.728Z,4.94
2022-09-20T06:05:20.723Z,4.96
2022-09-20T06:06:20.736Z,4.98
2022-09-20T06:07:20.750Z,5.02
2022-09-20T06:08:20.716Z,5.04
2022-09-20T06:09:20.754Z,5.08
2022-09-20T06:10:20.731Z,5.13
2022-09-20T06:11:20.770Z,5.17
2022-09-20T06:12:20.816Z,5.22
2022-09-20T06:13:20.783Z,5.27
2022-09-20T06:14:20.816Z,5.32
2022-09-20T06:15:20.826Z,5.37
2022-09-20T06:16:20.850Z,5.44
2022-09-20T06:17:20.845Z,5.46
2022-09-20T06:18:20.862Z,5.49
2022-09-20T06:19:20.837Z,5.54
2022-09-20T06:20:20.860Z,5.57
2022-09-20T06:21:20.882Z,5.59
2022-09-20T06:22:20.883Z,5.61
2022-09-20T06:23:20.891Z,5.65
2022-09-20T06:24:20.999Z,5.67
2022-09-20T06:25:21.000Z,5.70
2022-09-20T06:26:20.998Z,5.74
2022-09-20T06:27:21.017Z,5.77
2022-09-20T06:28:21.017Z,5.81
2022-09-20T06:29:21.022Z,5.85
2022-09-20T06:30:21.031Z,5.89
2022-09-20T06:31:21.195Z,5.93
2022-09-20T06:32:21.229Z,5.97
2022-09-20T06:33:21.187Z,6.02
2022-09-20T06:34:21.188Z,6.05
2022-09-20T06:35:21.170Z,6.08
2022-09-20T06:36:21.221Z,6.09
2022-09-20T06:37:21.192Z,6.12
2022-09-20T06:38:21.183Z,6.15
2022-09-20T06:39:21.225Z,6.17
2022-09-20T06:40:21.275Z,6.20
2022-09-20T06:41:21.211Z,6.22
2022-09-20T06:42:25.300Z,6.25
2022-09-20T06:43:21.180Z,6.29
2022-09-20T06:44:21.195Z,6.32
2022-09-20T06:45:21.243Z,6.37
2022-09-20T06:46:21.220Z,6.41
2022-09-20T06:47:21.198Z,6.44
2022-09-20T06:48:21.192Z,6.48
2022-09-20T06:49:21.238Z,6.55
2022-09-20T06:50:21.246Z,6.61
2022-09-20T06:51:21.198Z,6.66
2022-09-20T06:52:21.213Z,6.73
2022-09-20T06:53:21.216Z,6.78
2022-09-20T06:54:21.208Z,6.85
2022-09-20T06:55:21.225Z,6.90
2022-09-20T06:56:21.220Z,6.97
2022-09-20T06:57:21.222Z,7.03
2022-09-20T06:58:21.223Z,7.09
2022-09-20T06:59:21.227Z,7.16
2022-09-20T07:00:21.208Z,7.21
2022-09-20T07:01:29.721Z,7.27
2022-09-20T07:02:21.241Z,7.34
2022-09-20T07:03:21.233Z,7.37
2022-09-20T07:04:21.212Z,7.41
2022-09-20T07:05:21.219Z,7.44
2022-09-20T07:06:21.236Z,7.47
2022-09-20T07:07:21.250Z,7.51
2022-09-20T07:08:21.246Z,7.56
2022-09-20T07:09:21.243Z,7.60
2022-09-20T07:10:21.225Z,7.63
2022-09-20T07:11:21.247Z,7.66
2022-09-20T07:12:21.242Z,7.70
2022-09-20T07:13:21.241Z,7.75
2022-09-20T07:14:21.246Z,7.80
2022-09-20T07:15:21.241Z,7.84
2022-09-20T07:16:21.310Z,7.90
2022-09-20T07:17:21.243Z,7.94
2022-09-20T07:18:21.246Z,7.98
2022-09-20T07:19:21.250Z,8.02
2022-09-20T07:20:21.624Z,8.06
2022-09-20T07:21:21.249Z,8.09
2022-09-20T07:22:21.234Z,8.12
2022-09-20T07:23:21.239Z,8.17
2022-09-20T07:24:21.247Z,8.20
2022-09-20T07:25:21.241Z,8.25
2022-09-20T07:26:21.260Z,8.28
2022-09-20T07:27:21.261Z,8.31
2022-09-20T07:28:21.259Z,8.35
2022-09-20T07:29:21.250Z,8.39
2022-09-20T07:30:21.238Z,8.44
2022-09-20T07:31:21.332Z,8.49
2022-09-20T07:32:21.257Z,8.52
2022-09-20T07:33:21.237Z,8.55
2022-09-20T07:34:21.260Z,8.59
2022-09-20T07:35:21.239Z,8.62
2022-09-20T07:36:21.281Z,8.67
2022-09-20T07:37:21.294Z,8.69
2022-09-20T07:38:21.255Z,8.73
2022-09-20T07:39:21.241Z,8.78
2022-09-20T07:40:21.299Z,8.82
2022-09-20T07:41:21.262Z,8.87
2022-09-20T07:42:21.252Z,8.91
2022-09-20T07:43:21.254Z,8.98
2022-09-20T07:44:21.276Z,9.03
2022-09-20T07:45:21.265Z,9.11
2022-09-20T07:46:21.286Z,9.19
2022-09-20T07:47:21.258Z,9.27
2022-09-20T07:48:21.273Z,9.34
2022-09-20T07:49:21.273Z,9.37
2022-09-20T07:50:21.288Z,9.43
2022-09-20T07:51:21.302Z,9.49
2022-09-20T07:52:21.259Z,9.60
2022-09-20T07:53:21.257Z,9.66
2022-09-20T07:54:21.273Z,9.72
2022-09-20T07:55:21.281Z,9.83
2022-09-20T07:56:21.281Z,9.89
2022-09-20T07:57:21.293Z,9.94
2022-09-20T07:58:21.271Z,9.97
2022-09-20T07:59:21.304Z,9.97
2022-09-20T08:00:21.328Z,9.96
2022-09-20T08:01:21.368Z,9.98
2022-09-20T08:02:21.345Z,10.03
2022-09-20T08:03:21.275Z,10.09
2022-09-20T08:04:21.281Z,10.14
2022-09-20T08:05:21.268Z,10.22
2022-09-20T08:06:21.308Z,10.29
2022-09-20T08:07:21.298Z,10.30
2022-09-20T08:08:21.296Z,10.38
2022-09-20T08:09:21.298Z,10.47
2022-09-20T08:10:21.361Z,10.53
2022-09-20T08:11:21.293Z,10.55
2022-09-20T08:14:21.379Z,10.64
2022-09-20T08:15:21.321Z,10.67
2022-09-20T08:16:21.427Z,10.68
2022-09-20T08:17:21.299Z,10.70
2022-09-20T08:18:21.304Z,10.72
2022-09-20T08:19:21.308Z,10.72
2022-09-20T08:20:21.299Z,10.72
2022-09-20T08:21:21.402Z,10.72
2022-09-20T08:22:21.305Z,10.73
2022-09-20T08:23:23.774Z,10.76
2022-09-20T08:24:21.303Z,10.79
2022-09-20T08:25:21.302Z,10.82
2022-09-20T08:26:21.318Z,10.87
2022-09-20T08:27:21.318Z,10.89
2022-09-20T08:28:21.346Z,10.90
2022-09-20T08:29:21.316Z,10.89
2022-09-20T08:30:25.550Z,10.89
2022-09-20T08:31:21.358Z,10.90
2022-09-20T08:32:21.325Z,10.91
2022-09-20T08:33:21.334Z,10.95
2022-09-20T08:34:21.364Z,11.01
2022-09-20T08:35:21.373Z,11.09
2022-09-20T08:36:21.341Z,11.14
2022-09-20T08:37:21.324Z,11.21
2022-09-20T08:40:21.415Z,11.41
2022-09-20T08:41:21.357Z,11.50
2022-09-20T08:42:21.342Z,11.58
2022-09-20T08:43:22.230Z,11.62
2022-09-20T08:44:21.331Z,11.64
2022-09-20T08:45:23.416Z,11.67
2022-09-20T08:46:23.332Z,11.68
2022-09-20T08:47:21.342Z,11.70
2022-09-20T08:48:21.316Z,11.69
2022-09-20T08:49:21.312Z,11.72
2022-09-20T08:50:21.361Z,11.79
2022-09-20T08:51:22.810Z,11.84
2022-09-20T08:52:21.373Z,11.90
2022-09-20T08:53:21.640Z,11.99
2022-09-20T08:54:21.337Z,12.08
2022-09-20T08:55:21.349Z,12.16
2022-09-20T08:56:21.340Z,12.20
2022-09-20T08:57:21.328Z,12.19
2022-09-20T08:58:21.323Z,12.16
2022-09-20T08:59:21.338Z,12.14
2022-09-20T09:00:21.411Z,12.15
2022-09-20T09:01:21.470Z,12.18
2022-09-20T09:02:21.437Z,12.23
2022-09-20T09:03:21.346Z,12.28
2022-09-20T09:04:21.377Z,12.36
2022-09-20T09:05:21.348Z,12.45
2022-09-20T09:06:21.373Z,12.54
2022-09-20T09:07:21.339Z,12.66
2022-09-20T09:08:21.472Z,12.76
2022-09-20T09:09:21.476Z,12.89
2022-09-20T09:10:21.477Z,12.96
2022-09-20T09:11:21.551Z,13.09
2022-09-20T09:12:21.675Z,13.18
2022-09-20T09:13:21.493Z,13.26
2022-09-20T09:14:21.507Z,13.30
2022-09-20T09:15:21.498Z,13.34
2022-09-20T09:16:25.743Z,13.39
2022-09-20T09:17:27.223Z,13.38
2022-09-20T09:18:21.497Z,13.36
2022-09-20T09:19:21.485Z,13.34
2022-09-20T09:20:21.512Z,13.34
2022-09-20T09:21:21.514Z,13.41
2022-09-20T09:22:21.482Z,13.48
2022-09-20T09:23:21.489Z,13.59
2022-09-20T09:24:21.480Z,13.69
2022-09-20T09:25:21.492Z,13.74
2022-09-20T09:26:21.519Z,13.79
2022-09-20T09:27:21.514Z,13.83
2022-09-20T09:28:21.509Z,13.90
2022-09-20T09:29:21.502Z,13.96
2022-09-20T09:30:21.518Z,14.00
2022-09-20T09:31:21.571Z,13.99
2022-09-20T09:32:21.516Z,13.95
2022-09-20T09:33:21.510Z,13.96
2022-09-20T09:34:21.510Z,14.11
2022-09-20T09:35:21.516Z,14.41
2022-09-20T09:36:21.515Z,14.81
2022-09-20T09:38:21.500Z,15.61
2022-09-20T09:39:21.505Z,15.96
2022-09-20T09:40:21.573Z,16.20
2022-09-20T09:41:21.542Z,16.41
2022-09-20T09:42:21.498Z,16.71
2022-09-20T09:43:21.505Z,17.07
2022-09-20T09:44:21.512Z,17.35
2022-09-20T09:45:21.514Z,17.38
2022-09-20T09:46:21.677Z,17.46
2022-09-20T09:47:21.516Z,17.46
2022-09-20T09:48:21.519Z,17.47
2022-09-20T09:49:21.539Z,17.65
2022-09-20T09:50:21.537Z,18.00
2022-09-20T09:51:21.546Z,18.30
2022-09-20T09:52:21.527Z,18.50
2022-09-20T09:53:21.532Z,18.52
2022-09-20T09:54:21.537Z,18.38
2022-09-20T09:55:21.543Z,18.10
2022-09-20T09:56:21.523Z,17.78
2022-09-20T09:57:21.527Z,17.66
2022-09-20T09:58:21.531Z,17.72
2022-09-20T09:59:21.528Z,17.93
2022-09-20T10:00:22.510Z,18.23
2022-09-20T10:01:21.602Z,18.48
2022-09-20T10:02:21.631Z,18.66
2022-09-20T10:03:21.538Z,18.64
2022-09-20T10:04:21.542Z,18.38
2022-09-20T10:05:21.559Z,18.12
2022-09-20T10:06:21.551Z,17.80
2022-09-20T10:07:21.545Z,17.43
2022-09-20T10:08:21.522Z,17.12
2022-09-20T10:09:21.545Z,16.74
2022-09-20T10:10:21.541Z,16.41
2022-09-20T10:11:21.566Z,16.04
2022-09-20T10:12:21.555Z,15.69
2022-09-20T10:13:21.566Z,15.40
2022-09-20T10:14:21.558Z,15.13
2022-09-20T10:15:21.554Z,14.93
2022-09-20T10:16:21.596Z,14.78
2022-09-20T10:17:21.551Z,14.76
2022-09-20T10:18:21.565Z,14.96
2022-09-20T10:19:22.783Z,15.30
2022-09-20T10:20:21.552Z,15.60
2022-09-20T10:21:21.556Z,15.72
2022-09-20T10:22:21.572Z,15.75
2022-09-20T10:23:39.864Z,15.87
2022-09-20T10:24:21.581Z,16.07
2022-09-20T10:25:21.578Z,16.24
2022-09-20T10:26:21.584Z,16.54
2022-09-20T10:27:21.563Z,16.89
2022-09-20T10:28:21.578Z,17.36
2022-09-20T10:29:21.573Z,17.71
2022-09-20T10:30:21.561Z,17.96
2022-09-20T10:31:25.665Z,18.09
2022-09-20T10:32:21.603Z,17.95
2022-09-20T10:33:21.571Z,17.76
2022-09-20T10:34:21.567Z,17.47
2022-09-20T10:35:21.670Z,17.25
2022-09-20T10:36:21.597Z,17.31
2022-09-20T10:37:21.596Z,17.61
2022-09-20T10:38:21.590Z,18.06
2022-09-20T10:39:21.588Z,18.59
2022-09-20T10:40:21.630Z,19.11
2022-09-20T10:41:21.627Z,19.68
2022-09-20T10:42:21.588Z,20.14
2022-09-20T10:43:21.601Z,20.34
2022-09-20T10:44:21.605Z,20.44
2022-09-20T10:45:50.954Z,20.45
2022-09-20T10:46:31.852Z,20.62
2022-09-20T10:47:21.656Z,20.80
2022-09-20T10:48:21.604Z,20.78
2022-09-20T10:49:21.595Z,20.84
2022-09-20T10:50:21.613Z,20.89
2022-09-20T10:51:21.626Z,20.80
2022-09-20T10:52:21.602Z,20.65
2022-09-20T10:53:21.608Z,20.36
2022-09-20T10:54:21.620Z,20.35
2022-09-20T10:55:21.606Z,20.57
2022-09-20T10:56:21.625Z,20.74
2022-09-20T10:57:21.598Z,20.87
2022-09-20T10:58:21.609Z,20.81
2022-09-20T10:59:21.608Z,20.86
2022-09-20T11:00:21.620Z,21.28
2022-09-20T11:01:21.715Z,21.58
2022-09-20T11:02:21.707Z,21.83
2022-09-20T11:03:21.634Z,21.80
2022-09-20T11:04:21.623Z,21.18
2022-09-20T11:05:21.628Z,20.42
2022-09-20T11:06:21.640Z,19.74
2022-09-20T11:07:21.622Z,19.16
2022-09-20T11:08:21.657Z,18.67
2022-09-20T11:09:21.637Z,18.17
2022-09-20T11:10:21.656Z,17.72
2022-09-20T11:11:21.656Z,17.38
2022-09-20T11:12:21.651Z,17.01
2022-09-20T11:13:21.642Z,16.74
2022-09-20T11:14:21.636Z,16.51
2022-09-20T11:15:21.694Z,16.34
2022-09-20T11:16:21.715Z,16.02
2022-09-20T11:17:21.627Z,15.88
2022-09-20T11:18:21.616Z,15.86
2022-09-20T11:19:21.691Z,16.05
2022-09-20T11:20:21.656Z,16.39
2022-09-20T11:21:21.655Z,16.66
2022-09-20T11:22:21.641Z,16.80
2022-09-20T11:23:21.666Z,16.89
2022-09-20T11:24:21.659Z,16.99
2022-09-20T11:25:24.012Z,17.07
2022-09-20T11:26:21.675Z,17.04
2022-09-20T11:27:21.664Z,17.00
2022-09-20T11:28:21.651Z,16.99
2022-09-20T11:29:21.678Z,16.96
2022-09-20T11:30:21.670Z,16.86
2022-09-20T11:31:21.716Z,16.79
2022-09-20T11:32:21.660Z,16.67
2022-09-20T11:33:21.672Z,16.47
2022-09-20T11:34:21.665Z,16.29
2022-09-20T11:35:21.659Z,15.99
2022-09-20T11:36:21.664Z,15.83
2022-09-20T11:37:21.666Z,15.72
2022-09-20T11:38:21.666Z,15.67
2022-09-20T11:39:21.670Z,15.58
2022-09-20T11:40:21.705Z,15.49
2022-09-20T11:41:21.677Z,15.38
2022-09-20T11:42:21.679Z,15.27
2022-09-20T11:43:21.704Z,15.14
2022-09-20T11:44:21.707Z,15.10
2022-09-20T11:45:24.055Z,15.07
2022-09-20T11:46:21.739Z,15.11
2022-09-20T11:47:36.917Z,15.13
2022-09-20T11:48:21.710Z,15.16
2022-09-20T11:49:21.694Z,15.18
2022-09-20T11:50:21.703Z,15.15
2022-09-20T11:51:21.732Z,15.14
2022-09-20T11:52:21.685Z,15.09
2022-09-20T11:53:21.672Z,15.04
2022-09-20T11:54:21.687Z,14.97
2022-09-20T11:55:21.682Z,14.94
2022-09-20T11:56:21.719Z,14.94
2022-09-20T11:57:21.695Z,14.93
2022-09-20T11:58:21.706Z,14.94
2022-09-20T11:59:21.687Z,14.93
2022-09-20T12:00:21.709Z,14.96
2022-09-20T12:01:26.143Z,15.00
2022-09-20T12:02:21.816Z,15.07
2022-09-20T12:03:21.751Z,15.11
2022-09-20T12:04:32.300Z,15.21
2022-09-20T12:05:21.701Z,15.36
2022-09-20T12:06:21.721Z,15.54
2022-09-20T12:07:21.721Z,15.73
2022-09-20T12:08:21.723Z,15.88
2022-09-20T12:09:21.742Z,15.94
2022-09-20T12:10:21.703Z,15.93
2022-09-20T12:11:21.707Z,15.87
2022-09-20T12:12:21.703Z,15.91
2022-09-20T12:13:21.717Z,15.97
2022-09-20T12:14:21.723Z,16.03
2022-09-20T12:15:21.705Z,16.07
2022-09-20T12:16:21.757Z,16.13
2022-09-20T12:17:21.707Z,16.12
2022-09-20T12:18:21.736Z,16.13
2022-09-20T12:19:21.697Z,16.16
2022-09-20T12:20:21.721Z,16.17
2022-09-20T12:21:21.727Z,16.16
2022-09-20T12:22:21.729Z,16.15
2022-09-20T12:23:21.690Z,16.16
2022-09-20T12:24:21.741Z,16.19
2022-09-20T12:25:21.752Z,16.25
2022-09-20T12:26:21.752Z,16.30
2022-09-20T12:27:21.736Z,16.36
2022-09-20T12:28:21.748Z,16.39
2022-09-20T12:29:21.733Z,16.40
2022-09-20T12:30:21.727Z,16.44
2022-09-20T12:31:21.900Z,16.52
2022-09-20T12:32:21.740Z,16.62
2022-09-20T12:33:21.747Z,16.52
2022-09-20T12:34:21.731Z,16.47
2022-09-20T12:35:21.744Z,16.41
2022-09-20T12:36:21.759Z,16.40
2022-09-20T12:37:21.743Z,16.45
2022-09-20T12:38:21.758Z,16.52
2022-09-20T12:39:24.191Z,16.54
2022-09-20T12:40:21.815Z,16.48
2022-09-20T12:41:28.290Z,16.40
2022-09-20T12:42:21.766Z,16.29
2022-09-20T12:43:21.774Z,16.18
2022-09-20T12:44:21.760Z,16.07
2022-09-20T12:45:21.745Z,16.02
2022-09-20T12:46:21.828Z,16.00
2022-09-20T12:47:21.745Z,16.12
2022-09-20T12:48:21.739Z,16.39
2022-09-20T12:49:21.775Z,16.67
2022-09-20T12:50:21.782Z,16.80
2022-09-20T12:51:21.817Z,16.97
2022-09-20T12:52:21.762Z,17.26
2022-09-20T12:53:21.774Z,17.64
2022-09-20T12:54:21.777Z,18.17
2022-09-20T12:55:21.763Z,18.70
2022-09-20T12:56:21.772Z,19.17
2022-09-20T12:57:21.755Z,19.68
2022-09-20T12:58:21.774Z,19.96
2022-09-20T12:59:21.740Z,20.14
2022-09-20T13:00:21.752Z,20.26
2022-09-20T13:01:21.827Z,20.33
2022-09-20T13:02:21.830Z,20.14
2022-09-20T13:03:21.799Z,19.78
2022-09-20T13:04:21.799Z,19.39
2022-09-20T13:05:21.755Z,19.07
2022-09-20T13:06:21.771Z,18.82
2022-09-20T13:07:21.796Z,18.63
2022-09-20T13:08:21.784Z,18.46
2022-09-20T13:09:21.775Z,18.29
2022-09-20T13:10:21.764Z,18.13
2022-09-20T13:11:21.794Z,17.99
2022-09-20T13:12:21.783Z,17.81
2022-09-20T13:13:21.805Z,17.62
2022-09-20T13:14:21.775Z,17.52
2022-09-20T13:15:21.762Z,17.43
2022-09-20T13:16:21.805Z,17.38
2022-09-20T13:17:21.803Z,17.40
2022-09-20T13:18:21.859Z,17.57
2022-09-20T13:19:21.779Z,17.76
2022-09-20T13:20:21.783Z,17.87
2022-09-20T13:21:21.848Z,17.91
2022-09-20T13:22:21.784Z,17.92
2022-09-20T13:23:21.812Z,17.80
2022-09-20T13:24:21.779Z,17.54
2022-09-20T13:25:21.818Z,17.29
2022-09-20T13:26:21.802Z,16.98
2022-09-20T13:27:21.809Z,16.77
2022-09-20T13:28:21.839Z,16.65
2022-09-20T13:29:21.811Z,16.45
2022-09-20T13:30:21.821Z,16.29
2022-09-20T13:31:21.887Z,16.13
2022-09-20T13:32:21.820Z,15.92
2022-09-20T13:33:21.847Z,15.73
2022-09-20T13:34:21.892Z,15.58
2022-09-20T13:35:21.831Z,15.46
2022-09-20T13:36:21.823Z,15.35
2022-09-20T13:37:21.812Z,15.24
2022-09-20T13:38:21.827Z,15.12
2022-09-20T13:39:21.824Z,15.03
2022-09-20T13:40:21.849Z,14.88
2022-09-20T13:41:21.855Z,14.79
2022-09-20T13:42:21.830Z,14.70
2022-09-20T13:43:24.148Z,14.64
2022-09-20T13:44:21.825Z,14.62
2022-09-20T13:45:21.816Z,14.56
2022-09-20T13:46:21.936Z,14.53
2022-09-20T13:47:21.828Z,14.52
2022-09-20T13:48:21.832Z,14.46
2022-09-20T13:49:21.828Z,14.42